createdAt,value
2023-04-20T00:00:58.028Z,2.49
2023-04-20T00:03:26.679Z,2.55
2023-04-20T00:05:54.362Z,2.52
2023-04-20T00:08:21.457Z,2.32
2023-04-20T00:10:48.760Z,2.27
2023-04-20T00:13:15.865Z,2.26
2023-04-20T00:15:42.963Z,2.30
2023-04-20T00:18:10.221Z,2.44
2023-04-20T00:20:38.560Z,2.39
2023-04-20T00:23:05.751Z,2.30
2023-04-20T00:25:33.392Z,2.38
2023-04-20T00:28:00.656Z,2.34
2023-04-20T00:30:27.825Z,2.41
2023-04-20T00:32:54.977Z,2.36
2023-04-20T00:35:22.170Z,2.43
2023-04-20T00:37:49.250Z,2.33
2023-04-20T00:40:16.402Z,2.32
2023-04-20T00:42:43.463Z,2.25
2023-04-20T00:45:10.715Z,2.30
2023-04-20T00:47:38.527Z,2.30
2023-04-20T00:50:06.837Z,2.29
2023-04-20T00:52:34.106Z,2.27
2023-04-20T00:55:02.087Z,2.23
2023-04-20T00:57:31.129Z,2.19
2023-04-20T01:00:01.633Z,2.30
2023-04-20T01:02:28.971Z,2.20
2023-04-20T01:04:56.614Z,2.21
2023-04-20T01:07:23.719Z,2.22
2023-04-20T01:09:50.861Z,2.19
2023-04-20T01:12:18.115Z,2.18
2023-04-20T01:14:45.178Z,2.20
2023-04-20T01:17:13.625Z,2.20
2023-04-20T01:19:46.187Z,2.18
2023-04-20T01:22:22.405Z,2.13
2023-04-20T01:24:49.530Z,2.14
2023-04-20T01:27:17.208Z,2.08
2023-04-20T01:29:45.445Z,2.23
2023-04-20T01:32:13.070Z,2.10
2023-04-20T01:34:40.844Z,2.10
2023-04-20T01:37:09.025Z,1.97
2023-04-20T01:39:37.763Z,2.18
2023-04-20T01:42:06.137Z,2.24
2023-04-20T01:44:33.276Z,2.35
2023-04-20T01:47:00.455Z,2.25
2023-04-20T01:49:27.704Z,2.24
2023-04-20T01:51:55.662Z,2.12
2023-04-20T01:54:22.867Z,2.02
2023-04-20T01:56:49.940Z,1.93
2023-04-20T01:59:17.388Z,1.89
2023-04-20T02:01:44.626Z,1.79
2023-04-20T02:04:11.823Z,1.61
2023-04-20T02:06:40.919Z,1.56
2023-04-20T02:09:10.173Z,1.47
2023-04-20T02:11:37.351Z,1.53
2023-04-20T02:14:06.717Z,1.47
2023-04-20T02:16:35.526Z,1.37
2023-04-20T02:19:03.048Z,1.41
2023-04-20T02:21:30.191Z,1.47
2023-04-20T02:23:57.574Z,1.48
2023-04-20T02:26:27.366Z,1.44
2023-04-20T02:28:54.467Z,1.40
2023-04-20T02:31:21.543Z,1.31
2023-04-20T02:33:50.681Z,1.21
2023-04-20T02:36:19.390Z,1.18
2023-04-20T02:38:46.472Z,0.98
2023-04-20T02:41:13.551Z,0.91
2023-04-20T02:43:41.054Z,0.89
2023-04-20T02:46:09.971Z,0.70
2023-04-20T02:48:37.254Z,0.66
2023-04-20T02:51:04.437Z,0.51
2023-04-20T02:53:41.055Z,0.50
2023-04-20T02:56:14.429Z,0.45
2023-04-20T02:58:52.108Z,0.48
2023-04-20T03:01:32.994Z,0.52
2023-04-20T03:04:06.596Z,0.50
2023-04-20T03:06:38.887Z,0.44
2023-04-20T03:09:08.978Z,0.38
2023-04-20T03:11:56.403Z,0.35
2023-04-20T03:14:42.036Z,0.35
2023-04-20T03:17:09.458Z,0.34
2023-04-20T03:19:36.848Z,0.45
2023-04-20T03:22:04.906Z,0.45
2023-04-20T03:24:33.854Z,0.46
2023-04-20T03:27:08.013Z,0.46
2023-04-20T03:29:44.170Z,0.55
2023-04-20T03:32:11.495Z,0.61
2023-04-20T03:34:38.676Z,0.66
2023-04-20T03:37:06.496Z,0.65
2023-04-20T03:39:33.614Z,0.68
2023-04-20T03:42:00.787Z,0.64
2023-04-20T03:44:28.115Z,0.57
2023-04-20T03:46:55.191Z,0.49
2023-04-20T03:49:25.056Z,0.52
2023-04-20T03:51:52.210Z,0.44
2023-04-20T03:54:19.275Z,0.49
2023-04-20T03:56:46.615Z,0.46
2023-04-20T03:59:14.264Z,0.45
2023-04-20T04:01:44.393Z,0.29
2023-04-20T04:04:13.691Z,0.29
2023-04-20T04:06:41.193Z,0.20
2023-04-20T04:09:09.629Z,0.13
2023-04-20T04:11:36.903Z,0.28
2023-04-20T04:14:07.063Z,0.27
2023-04-20T04:16:36.899Z,0.35
2023-04-20T04:19:04.157Z,0.27
2023-04-20T04:21:31.462Z,0.33
2023-04-20T04:24:05.743Z,0.34
2023-04-20T04:26:41.371Z,0.41
2023-04-20T04:29:09.058Z,0.44
2023-04-20T04:31:36.284Z,0.44
2023-04-20T04:34:10.742Z,0.48
2023-04-20T04:36:44.091Z,0.42
2023-04-20T04:39:13.919Z,0.27
2023-04-20T04:41:57.401Z,0.31
2023-04-20T04:44:40.063Z,0.32
2023-04-20T04:47:09.564Z,0.35
2023-04-20T04:49:37.129Z,0.23
2023-04-20T04:52:04.334Z,0.08
2023-04-20T04:54:31.457Z,0.10
2023-04-20T04:56:58.806Z,0.32
2023-04-20T04:59:26.005Z,0.21
2023-04-20T05:01:53.118Z,0.22
2023-04-20T05:04:20.666Z,0.31
2023-04-20T05:06:47.829Z,0.32
2023-04-20T05:09:21.168Z,0.29
2023-04-20T05:11:48.214Z,0.38
2023-04-20T05:14:15.521Z,0.48
2023-04-20T05:16:42.721Z,0.40
2023-04-20T05:19:09.910Z,0.36
2023-04-20T05:21:38.187Z,0.41
2023-04-20T05:24:06.439Z,0.33
2023-04-20T05:26:33.629Z,0.42
2023-04-20T05:29:01.690Z,0.51
2023-04-20T05:31:29.174Z,0.54
2023-04-20T05:33:56.280Z,0.57
2023-04-20T05:36:23.470Z,0.61
2023-04-20T05:38:50.679Z,0.67
2023-04-20T05:41:17.868Z,0.66
2023-04-20T05:43:45.208Z,0.70
2023-04-20T05:46:12.370Z,0.57
2023-04-20T05:48:39.539Z,0.60
2023-04-20T05:51:06.721Z,0.74
2023-04-20T05:53:33.824Z,0.62
2023-04-20T05:56:00.888Z,0.64
2023-04-20T05:58:28.133Z,0.73
2023-04-20T06:00:55.228Z,0.85
2023-04-20T06:03:22.849Z,0.81
2023-04-20T06:05:50.791Z,0.80
2023-04-20T06:08:19.267Z,0.74
2023-04-20T06:10:46.724Z,0.82
2023-04-20T06:13:13.905Z,0.87
2023-04-20T06:15:41.408Z,1.21
2023-04-20T06:18:08.632Z,1.39
2023-04-20T06:20:35.802Z,1.49
2023-04-20T06:23:02.964Z,1.57
2023-04-20T06:25:30.214Z,1.56
2023-04-20T06:27:57.401Z,1.68
2023-04-20T06:30:24.503Z,1.80
2023-04-20T06:32:51.756Z,1.88
2023-04-20T06:35:18.952Z,1.68
2023-04-20T06:37:46.481Z,1.53
2023-04-20T06:40:16.128Z,1.54
2023-04-20T06:42:43.497Z,1.87
2023-04-20T06:45:11.604Z,2.02
2023-04-20T06:47:39.125Z,1.98
2023-04-20T06:50:09.620Z,2.13
2023-04-20T06:52:38.885Z,2.32
2023-04-20T06:55:07.032Z,2.46
2023-04-20T06:57:34.270Z,2.49
2023-04-20T07:00:01.716Z,2.51
2023-04-20T07:02:28.897Z,2.40
2023-04-20T07:05:01.768Z,2.46
2023-04-20T07:07:28.914Z,2.20
2023-04-20T07:09:56.007Z,2.25
2023-04-20T07:12:23.094Z,2.26
2023-04-20T07:14:50.318Z,2.02
2023-04-20T07:17:17.591Z,2.22
2023-04-20T07:19:44.673Z,2.25
2023-04-20T07:22:11.765Z,2.26
2023-04-20T07:24:38.836Z,2.35
2023-04-20T07:27:06.573Z,2.32
2023-04-20T07:29:34.182Z,2.46
2023-04-20T07:32:01.424Z,2.31
2023-04-20T07:34:36.268Z,2.46
2023-04-20T07:37:03.373Z,2.57
2023-04-20T07:39:30.804Z,2.52
2023-04-20T07:41:57.918Z,2.40
2023-04-20T07:44:24.988Z,2.64
2023-04-20T07:46:52.029Z,2.74
2023-04-20T07:49:19.362Z,2.61
2023-04-20T07:51:46.776Z,2.49
2023-04-20T07:54:13.834Z,2.38
2023-04-20T07:56:40.903Z,2.55
2023-04-20T07:59:08.775Z,2.57
2023-04-20T08:01:36.852Z,2.82
2023-04-20T08:04:04.189Z,2.82
2023-04-20T08:06:31.931Z,3.01
2023-04-20T08:08:59.058Z,2.98
2023-04-20T08:11:26.997Z,3.13
2023-04-20T08:13:55.078Z,3.17
2023-04-20T08:16:24.071Z,3.20
2023-04-20T08:18:51.471Z,3.22
2023-04-20T08:21:18.822Z,3.17
2023-04-20T08:23:45.912Z,3.38
2023-04-20T08:26:16.051Z,3.54
2023-04-20T08:28:44.904Z,3.77
2023-04-20T08:31:14.182Z,4.04
2023-04-20T08:33:41.730Z,4.28
2023-04-20T08:36:08.876Z,4.18
2023-04-20T08:38:36.328Z,4.08
2023-04-20T08:41:03.549Z,4.10
2023-04-20T08:43:31.731Z,4.37
2023-04-20T08:46:00.364Z,4.46
2023-04-20T08:48:38.701Z,4.70
2023-04-20T08:51:06.419Z,4.71
2023-04-20T08:53:33.875Z,4.70
2023-04-20T08:56:01.231Z,4.67
2023-04-20T08:58:32.169Z,4.61
2023-04-20T09:01:01.072Z,4.71
2023-04-20T09:03:33.480Z,4.81
2023-04-20T09:06:00.883Z,4.79
2023-04-20T09:08:39.343Z,4.68
2023-04-20T09:11:06.768Z,4.59
2023-04-20T09:13:33.950Z,4.58
2023-04-20T09:16:13.684Z,4.65
2023-04-20T09:18:51.200Z,4.85
2023-04-20T09:21:18.275Z,4.98
2023-04-20T09:23:56.528Z,4.82
2023-04-20T09:26:27.145Z,4.95
2023-04-20T09:28:54.354Z,4.89
2023-04-20T09:31:22.953Z,4.90
2023-04-20T09:34:01.544Z,4.93
2023-04-20T09:36:39.159Z,4.82
2023-04-20T09:39:15.569Z,4.55
2023-04-20T09:41:43.830Z,4.70
2023-04-20T09:44:12.301Z,4.60
2023-04-20T09:46:40.723Z,4.67
2023-04-20T09:49:09.880Z,4.58
2023-04-20T09:51:45.035Z,4.58
2023-04-20T09:54:13.605Z,4.57
2023-04-20T09:56:41.192Z,4.48
2023-04-20T09:59:08.812Z,4.60
2023-04-20T10:01:38.192Z,4.75
2023-04-20T10:04:14.435Z,4.67
2023-04-20T10:07:03.281Z,4.57
2023-04-20T10:09:32.358Z,4.38
2023-04-20T10:12:07.411Z,4.26
2023-04-20T10:14:35.755Z,4.32
2023-04-20T10:17:08.986Z,4.24
2023-04-20T10:19:44.248Z,4.26
2023-04-20T10:22:29.220Z,4.31
2023-04-20T10:24:56.447Z,4.22
2023-04-20T10:27:24.158Z,4.25
2023-04-20T10:29:51.688Z,4.25
2023-04-20T10:32:27.237Z,4.26
2023-04-20T10:35:20.930Z,4.37
2023-04-20T10:37:50.947Z,4.25
2023-04-20T10:40:27.156Z,4.29
2023-04-20T10:42:54.359Z,4.27
2023-04-20T10:45:22.059Z,4.35
2023-04-20T10:47:49.901Z,4.39
2023-04-20T10:50:18.875Z,4.40
2023-04-20T10:52:46.222Z,4.48
2023-04-20T10:55:21.821Z,4.40
2023-04-20T10:57:54.205Z,4.51
2023-04-20T11:00:28.731Z,4.54
2023-04-20T11:02:59.795Z,4.66
2023-04-20T11:05:27.699Z,4.67
2023-04-20T11:07:56.668Z,4.66
2023-04-20T11:10:36.732Z,4.84
2023-04-20T11:13:03.865Z,4.87
2023-04-20T11:15:35.266Z,4.88
2023-04-20T11:18:10.253Z,4.80
2023-04-20T11:20:38.315Z,4.72
2023-04-20T11:23:06.054Z,4.69
2023-04-20T11:25:34.026Z,4.64
2023-04-20T11:28:08.908Z,4.57
2023-04-20T11:30:42.770Z,4.65
2023-04-20T11:33:11.001Z,4.65
2023-04-20T11:35:40.037Z,4.86
2023-04-20T11:38:08.380Z,4.89
2023-04-20T11:40:36.481Z,5.06
2023-04-20T11:43:04.837Z,5.02
2023-04-20T11:45:36.893Z,5.14
2023-04-20T11:48:05.792Z,5.19
2023-04-20T11:50:33.004Z,5.25
2023-04-20T11:53:00.301Z,5.41
2023-04-20T11:55:27.422Z,5.52
2023-04-20T11:57:54.962Z,5.48
2023-04-20T12:00:22.427Z,5.49
2023-04-20T12:02:49.744Z,5.37
2023-04-20T12:05:17.043Z,5.53
2023-04-20T12:07:44.211Z,5.52
2023-04-20T12:10:11.439Z,5.67
2023-04-20T12:12:38.560Z,5.63
2023-04-20T12:15:06.698Z,5.74
2023-04-20T12:17:33.975Z,5.84
2023-04-20T12:20:01.170Z,5.97
2023-04-20T12:22:28.490Z,6.06
2023-04-20T12:24:55.570Z,6.35
2023-04-20T12:27:22.728Z,6.52
2023-04-20T12:29:49.919Z,6.42
2023-04-20T12:32:17.067Z,6.27
2023-04-20T12:34:44.221Z,6.12
2023-04-20T12:37:11.308Z,6.32
2023-04-20T12:39:38.472Z,6.39
2023-04-20T12:42:05.658Z,6.55
2023-04-20T12:44:33.028Z,6.54
2023-04-20T12:47:00.228Z,6.51
2023-04-20T12:49:27.370Z,6.46
2023-04-20T12:51:54.479Z,6.52
2023-04-20T12:54:21.621Z,6.52
2023-04-20T12:56:49.036Z,6.59
2023-04-20T12:59:16.131Z,6.57
2023-04-20T13:01:43.302Z,6.70
2023-04-20T13:04:11.172Z,6.79
2023-04-20T13:06:38.648Z,6.83
2023-04-20T13:09:07.112Z,6.88
2023-04-20T13:11:34.289Z,6.95
2023-04-20T13:14:01.514Z,7.08
2023-04-20T13:16:29.483Z,6.98
2023-04-20T13:18:56.821Z,7.26
2023-04-20T13:21:23.926Z,7.38
2023-04-20T13:23:51.317Z,7.55
2023-04-20T13:26:18.442Z,7.74
2023-04-20T13:28:45.653Z,7.85
2023-04-20T13:31:12.821Z,7.98
2023-04-20T13:33:39.979Z,7.82
2023-04-20T13:36:08.759Z,7.75
2023-04-20T13:38:36.018Z,7.83
2023-04-20T13:41:03.218Z,7.81
2023-04-20T13:43:30.314Z,7.91
2023-04-20T13:45:58.101Z,7.87
2023-04-20T13:48:25.278Z,8.01
2023-04-20T13:50:56.169Z,8.16
2023-04-20T13:53:23.608Z,8.05
2023-04-20T13:55:50.936Z,8.08
2023-04-20T13:58:18.078Z,8.22
2023-04-20T14:00:46.289Z,8.49
2023-04-20T14:03:14.308Z,8.68
2023-04-20T14:05:42.257Z,8.99
2023-04-20T14:08:09.756Z,9.15
2023-04-20T14:10:40.546Z,9.22
2023-04-20T14:13:10.019Z,9.18
2023-04-20T14:15:40.016Z,9.06
2023-04-20T14:18:07.735Z,8.82
2023-04-20T14:20:37.873Z,9.04
2023-04-20T14:23:09.263Z,9.09
2023-04-20T14:25:36.775Z,9.26
2023-04-20T14:28:07.049Z,9.82
2023-04-20T14:30:34.193Z,10.30
2023-04-20T14:33:03.207Z,10.66
2023-04-20T14:35:34.118Z,11.26
2023-04-20T14:38:01.551Z,11.14
2023-04-20T14:40:29.179Z,11.53
2023-04-20T14:42:57.100Z,11.66
2023-04-20T14:45:24.174Z,11.90
2023-04-20T14:47:57.710Z,11.97
2023-04-20T14:50:31.559Z,12.03
2023-04-20T14:52:58.636Z,11.79
2023-04-20T14:55:26.207Z,11.68
2023-04-20T14:57:58.923Z,11.86
2023-04-20T15:00:36.032Z,11.46
2023-04-20T15:03:03.970Z,11.39
2023-04-20T15:05:33.088Z,11.59
2023-04-20T15:08:04.331Z,11.91
2023-04-20T15:10:38.347Z,11.90
2023-04-20T15:13:09.732Z,12.14
2023-04-20T15:15:48.246Z,12.37
2023-04-20T15:18:20.905Z,12.53
2023-04-20T15:20:48.382Z,12.68
2023-04-20T15:23:19.763Z,12.48
2023-04-20T15:25:50.436Z,12.35
2023-04-20T15:28:23.022Z,12.30
2023-04-20T15:30:55.288Z,12.43
2023-04-20T15:33:22.576Z,12.46
2023-04-20T15:35:50.490Z,12.62
2023-04-20T15:38:25.381Z,12.83
2023-04-20T15:40:53.903Z,13.15
2023-04-20T15:43:21.293Z,13.24
2023-04-20T15:45:51.476Z,13.34
2023-04-20T15:48:19.501Z,13.16
2023-04-20T15:50:51.626Z,13.23
2023-04-20T15:53:34.290Z,13.26
2023-04-20T15:56:01.647Z,13.19
2023-04-20T15:58:33.565Z,13.13
2023-04-20T16:01:01.053Z,13.05
2023-04-20T16:03:29.718Z,12.72
2023-04-20T16:05:57.306Z,12.58
2023-04-20T16:08:27.722Z,12.51
2023-04-20T16:10:57.655Z,12.29
2023-04-20T16:13:32.676Z,12.03
2023-04-20T16:16:02.636Z,11.89
2023-04-20T16:18:32.903Z,11.58
2023-04-20T16:21:00.221Z,11.41
2023-04-20T16:23:31.497Z,11.46
2023-04-20T16:26:05.423Z,11.39
2023-04-20T16:28:35.881Z,11.42
2023-04-20T16:31:03.169Z,11.33
2023-04-20T16:33:32.141Z,11.32
2023-04-20T16:36:00.457Z,11.29
2023-04-20T16:38:27.757Z,11.11
2023-04-20T16:40:55.017Z,11.00
2023-04-20T16:43:22.510Z,10.93
2023-04-20T16:45:49.908Z,10.94
2023-04-20T16:48:17.109Z,11.07
2023-04-20T16:50:44.320Z,10.93
2023-04-20T16:53:11.418Z,10.83
2023-04-20T16:55:38.551Z,10.83
2023-04-20T16:58:05.698Z,10.83
2023-04-20T17:00:33.214Z,10.75
2023-04-20T17:03:03.782Z,10.82
2023-04-20T17:05:31.225Z,10.91
2023-04-20T17:07:58.428Z,10.89
2023-04-20T17:10:25.674Z,10.73
2023-04-20T17:12:53.035Z,10.69
2023-04-20T17:15:20.818Z,10.71
2023-04-20T17:17:50.818Z,10.74
2023-04-20T17:20:18.267Z,10.71
2023-04-20T17:22:46.711Z,10.67
2023-04-20T17:25:14.762Z,10.59
2023-04-20T17:27:43.658Z,10.57
2023-04-20T17:30:17.395Z,10.49
2023-04-20T17:32:44.523Z,10.52
2023-04-20T17:35:11.845Z,10.38
2023-04-20T17:37:39.187Z,10.35
2023-04-20T17:40:07.684Z,10.30
2023-04-20T17:42:34.841Z,10.24
2023-04-20T17:45:01.977Z,10.20
2023-04-20T17:47:31.599Z,10.23
2023-04-20T17:49:59.908Z,10.29
2023-04-20T17:52:28.266Z,10.31
2023-04-20T17:54:55.619Z,10.25
2023-04-20T17:57:22.820Z,10.22
2023-04-20T17:59:50.669Z,10.19
2023-04-20T18:02:18.238Z,10.07
2023-04-20T18:04:46.038Z,10.07
2023-04-20T18:07:15.615Z,9.94
2023-04-20T18:09:43.548Z,9.92
2023-04-20T18:12:11.508Z,9.95
2023-04-20T18:14:40.584Z,9.89
2023-04-20T18:17:08.384Z,9.82
2023-04-20T18:19:38.418Z,9.79
2023-04-20T18:22:05.783Z,9.76
2023-04-20T18:24:33.114Z,9.71
2023-04-20T18:27:01.042Z,9.84
2023-04-20T18:29:29.092Z,9.78
2023-04-20T18:32:01.750Z,9.76
2023-04-20T18:34:34.700Z,9.70
2023-04-20T18:37:01.871Z,9.76
2023-04-20T18:39:30.007Z,9.74
2023-04-20T18:41:59.986Z,9.71
2023-04-20T18:44:28.389Z,9.70
2023-04-20T18:47:04.875Z,9.62
2023-04-20T18:49:32.277Z,9.67
2023-04-20T18:51:59.683Z,9.63
2023-04-20T18:54:26.919Z,9.58
2023-04-20T18:56:54.835Z,9.55
2023-04-20T18:59:22.023Z,9.58
2023-04-20T19:01:52.601Z,9.51
2023-04-20T19:04:20.640Z,9.58
2023-04-20T19:06:48.399Z,9.53
2023-04-20T19:09:18.599Z,9.54
2023-04-20T19:11:45.883Z,9.50
2023-04-20T19:14:15.932Z,9.44
2023-04-20T19:16:43.278Z,9.35
2023-04-20T19:19:10.910Z,9.37
2023-04-20T19:21:40.402Z,9.31
2023-04-20T19:24:07.916Z,9.35
2023-04-20T19:26:37.813Z,9.40
2023-04-20T19:29:05.953Z,9.36
2023-04-20T19:31:37.855Z,9.31
2023-04-20T19:34:07.861Z,9.32
2023-04-20T19:36:35.264Z,9.35
2023-04-20T19:39:03.636Z,9.30
2023-04-20T19:41:31.179Z,9.15
2023-04-20T19:43:59.428Z,9.17
2023-04-20T19:46:27.180Z,9.20
2023-04-20T19:48:57.531Z,9.20
2023-04-20T19:51:28.417Z,9.10
2023-04-20T19:53:56.545Z,9.04
2023-04-20T19:56:27.462Z,9.00
2023-04-20T19:58:54.749Z,8.92
2023-04-20T20:01:21.892Z,8.87
2023-04-20T20:03:49.844Z,8.71
2023-04-20T20:06:22.958Z,8.74
2023-04-20T20:08:50.676Z,8.68
2023-04-20T20:11:17.925Z,8.82
2023-04-20T20:13:45.337Z,8.87
2023-04-20T20:16:12.527Z,8.71
2023-04-20T20:18:39.946Z,8.63
2023-04-20T20:21:07.463Z,8.50
2023-04-20T20:23:34.603Z,8.40
2023-04-20T20:26:02.663Z,8.47
2023-04-20T20:28:29.867Z,8.54
2023-04-20T20:30:57.288Z,8.52
2023-04-20T20:33:24.480Z,8.46
2023-04-20T20:35:52.563Z,8.41
2023-04-20T20:38:21.006Z,8.33
2023-04-20T20:40:50.552Z,8.33
2023-04-20T20:43:19.450Z,8.33
2023-04-20T20:45:47.400Z,8.33
2023-04-20T20:48:14.552Z,8.30
2023-04-20T20:50:41.740Z,8.29
2023-04-20T20:53:08.989Z,8.13
2023-04-20T20:55:36.148Z,8.22
2023-04-20T20:58:03.359Z,8.27
2023-04-20T21:00:30.851Z,8.43
2023-04-20T21:02:59.018Z,8.51
2023-04-20T21:05:26.538Z,8.55
2023-04-20T21:07:54.295Z,8.61
2023-04-20T21:10:21.416Z,8.68
2023-04-20T21:12:48.623Z,8.68
2023-04-20T21:15:16.133Z,8.67
2023-04-20T21:17:43.412Z,8.61
2023-04-20T21:20:11.535Z,8.74
2023-04-20T21:22:38.735Z,8.62
2023-04-20T21:25:06.556Z,8.61
2023-04-20T21:27:33.709Z,8.63
2023-04-20T21:30:00.870Z,8.65
2023-04-20T21:32:28.282Z,8.58
2023-04-20T21:34:55.525Z,8.65
2023-04-20T21:37:22.675Z,8.78
2023-04-20T21:39:51.150Z,8.71
2023-04-20T21:42:18.294Z,8.66
2023-04-20T21:44:48.248Z,8.64
2023-04-20T21:47:15.485Z,8.67
2023-04-20T21:49:46.448Z,8.79
2023-04-20T21:52:14.571Z,8.77
2023-04-20T21:54:42.030Z,8.74
2023-04-20T21:57:13.828Z,8.69
2023-04-20T21:59:40.996Z,8.66
2023-04-20T22:02:08.310Z,8.62
2023-04-20T22:04:35.846Z,8.80
2023-04-20T22:07:04.175Z,8.75
2023-04-20T22:09:31.363Z,8.78
2023-04-20T22:12:04.530Z,8.78
2023-04-20T22:14:31.804Z,8.89
2023-04-20T22:16:59.521Z,8.80
2023-04-20T22:19:29.407Z,8.88
2023-04-20T22:21:58.713Z,8.69
2023-04-20T22:24:25.958Z,8.78
2023-04-20T22:26:53.031Z,8.71
2023-04-20T22:29:20.946Z,8.76
2023-04-20T22:31:48.310Z,8.76
2023-04-20T22:34:15.987Z,8.68
2023-04-20T22:36:43.118Z,8.78
2023-04-20T22:39:10.258Z,8.76
2023-04-20T22:41:37.534Z,8.79
2023-04-20T22:44:04.759Z,8.84
2023-04-20T22:46:32.017Z,8.79
2023-04-20T22:48:59.228Z,8.71
2023-04-20T22:51:29.033Z,8.79
2023-04-20T22:53:56.177Z,8.76
2023-04-20T22:56:24.597Z,8.68
2023-04-20T22:58:51.755Z,8.65
2023-04-20T23:01:19.053Z,8.70
2023-04-20T23:03:46.361Z,8.69
2023-04-20T23:06:18.770Z,8.76
2023-04-20T23:08:46.840Z,8.73
2023-04-20T23:11:16.435Z,8.74
2023-04-20T23:13:44.366Z,8.73
2023-04-20T23:16:11.919Z,8.74
2023-04-20T23:18:39.088Z,8.78
2023-04-20T23:21:06.414Z,8.72
2023-04-20T23:23:33.477Z,8.72
2023-04-20T23:26:00.762Z,8.71
2023-04-20T23:28:27.878Z,8.69
2023-04-20T23:30:55.009Z,8.65
2023-04-20T23:33:22.595Z,8.57
2023-04-20T23:35:49.864Z,8.53
2023-04-20T23:38:18.133Z,8.54
2023-04-20T23:40:45.449Z,8.48
2023-04-20T23:43:12.538Z,8.50
2023-04-20T23:45:39.655Z,8.36
2023-04-20T23:48:07.344Z,8.41
2023-04-20T23:50:36.937Z,8.39
2023-04-20T23:53:05.693Z,8.40
2023-04-20T23:55:32.915Z,8.38
2023-04-20T23:58:00.373Z,8.29
